Time;durP1;ratioP1;P1;durP2;ratioP2;P2;SDS_P1;SDS_P2;PMS_P1;PMS_P2;Temp;Humidity;BMP_temperature;BMP_pressure;BME280_temperature;BME280_humidity;BME280_pressure;Samples;Min_cycle;Max_cycle;Signal;HPM_P1;HPM_P2
2023/07/15 00:01:34;;;;;;;5.65;4.57;;;19.70;75.50;;;;;;5071023;28;20037;-48
2023/07/15 00:04:01;;;;;;;6.80;4.63;;;19.70;75.40;;;;;;5073549;28;20044;-49
2023/07/15 00:06:26;;;;;;;6.38;4.10;;;19.70;75.30;;;;;;5073292;28;20028;-52
2023/07/15 00:08:54;;;;;;;9.68;4.07;;;19.70;75.40;;;;;;5052265;28;20086;-48
2023/07/15 00:11:41;;;;;;;5.20;4.07;;;19.70;75.50;;;;;;5053603;28;20025;-48
2023/07/15 00:14:17;;;;;;;5.82;4.07;;;19.70;75.40;;;;;;5053952;28;20113;-49
2023/07/15 00:16:44;;;;;;;14.98;4.45;;;19.70;75.50;;;;;;5053426;28;20075;-48
2023/07/15 00:19:10;;;;;;;6.00;4.75;;;19.70;75.60;;;;;;5048618;28;20106;-50
2023/07/15 00:21:36;;;;;;;5.63;3.70;;;19.70;75.70;;;;;;5033400;28;20034;-51
2023/07/15 00:24:03;;;;;;;5.75;4.15;;;19.70;76.00;;;;;;5041667;28;20481;-49
2023/07/15 00:26:32;;;;;;;7.40;5.15;;;19.70;76.00;;;;;;5049878;28;20398;-48
2023/07/15 00:29:03;;;;;;;6.95;4.97;;;19.70;75.90;;;;;;5031913;28;20463;-49
2023/07/15 00:31:30;;;;;;;6.72;4.75;;;19.70;75.60;;;;;;5033396;28;20075;-49
2023/07/15 00:33:58;;;;;;;9.10;4.60;;;19.70;74.90;;;;;;5032884;28;20120;-49
2023/07/15 00:36:26;;;;;;;6.25;4.45;;;19.70;74.90;;;;;;5033235;28;20466;-49
2023/07/15 00:38:53;;;;;;;6.03;3.90;;;19.70;74.60;;;;;;5032778;28;20084;-51
2023/07/15 00:41:31;;;;;;;7.38;4.43;;;19.70;74.50;;;;;;5032332;28;20041;-49
2023/07/15 00:44:00;;;;;;;4.93;3.85;;;19.70;74.50;;;;;;5042386;28;20025;-49
2023/07/15 00:47:08;;;;;;;7.10;3.70;;;19.70;74.00;;;;;;5045986;28;20040;-49
2023/07/15 00:49:39;;;;;;;9.15;4.38;;;19.80;73.90;;;;;;5048746;28;20040;-48
2023/07/15 00:52:13;;;;;;;5.55;3.92;;;19.80;73.80;;;;;;5056675;28;20028;-52
2023/07/15 00:54:42;;;;;;;8.23;4.32;;;19.80;74.10;;;;;;5052181;28;20020;-48
2023/07/15 00:57:13;;;;;;;6.85;4.28;;;19.80;73.70;;;;;;5043012;28;20021;-51
2023/07/15 00:59:42;;;;;;;7.15;4.00;;;19.80;73.50;;;;;;5050749;28;20086;-51
2023/07/15 01:02:13;;;;;;;7.97;4.60;;;19.90;73.40;;;;;;5052363;28;20029;-51
2023/07/15 01:04:40;;;;;;;8.10;4.47;;;19.90;72.90;;;;;;5051937;28;20079;-48
2023/07/15 01:07:07;;;;;;;6.82;4.03;;;19.90;72.80;;;;;;5050983;28;20018;-51
2023/07/15 01:09:34;;;;;;;10.02;4.90;;;19.90;72.40;;;;;;5052232;28;20308;-49
2023/07/15 01:12:01;;;;;;;6.03;4.28;;;19.90;72.30;;;;;;5050124;28;20029;-49
2023/07/15 01:14:30;;;;;;;8.48;3.90;;;20.00;72.00;;;;;;5052661;28;20051;-49
2023/07/15 01:16:57;;;;;;;9.25;3.80;;;19.90;72.10;;;;;;5049244;28;20040;-48
2023/07/15 01:19:24;;;;;;;6.20;4.13;;;19.90;72.00;;;;;;5057424;28;20135;-49
2023/07/15 01:21:52;;;;;;;7.20;4.30;;;20.00;71.90;;;;;;5057896;28;20043;-49
2023/07/15 01:24:22;;;;;;;9.38;4.75;;;20.00;71.80;;;;;;5052734;28;20032;-48
2023/07/15 01:26:58;;;;;;;7.55;3.72;;;19.90;71.80;;;;;;5052712;28;20714;-48
2023/07/15 01:29:24;;;;;;;6.43;4.90;;;19.90;71.80;;;;;;5052411;28;20090;-48
2023/07/15 01:31:51;;;;;;;5.32;3.38;;;19.90;71.80;;;;;;5052484;28;20029;-50
2023/07/15 01:34:19;;;;;;;8.35;3.70;;;19.90;71.60;;;;;;5052405;28;20028;-49
2023/07/15 01:36:46;;;;;;;5.97;4.10;;;19.90;71.60;;;;;;5052344;28;20078;-48
2023/07/15 01:39:15;;;;;;;7.35;5.05;;;19.80;72.10;;;;;;5052443;28;20024;-49
2023/07/15 01:41:45;;;;;;;6.72;4.40;;;19.80;72.10;;;;;;5056604;28;20033;-49
2023/07/15 01:44:15;;;;;;;6.10;4.15;;;19.70;72.50;;;;;;5060751;28;20107;-49
2023/07/15 01:46:41;;;;;;;8.60;5.13;;;19.60;72.60;;;;;;5066677;28;20437;-48
2023/07/15 01:49:13;;;;;;;5.85;4.35;;;19.60;72.80;;;;;;5073071;28;20090;-50
2023/07/15 01:51:39;;;;;;;8.73;4.30;;;19.60;72.70;;;;;;5072853;28;20465;-48
2023/07/15 01:54:06;;;;;;;7.97;4.35;;;19.50;72.70;;;;;;5075624;28;20039;-53
2023/07/15 01:56:33;;;;;;;8.55;4.43;;;19.40;73.20;;;;;;5075844;28;20081;-48
2023/07/15 01:58:59;;;;;;;7.88;4.47;;;19.40;72.90;;;;;;5075488;28;20027;-49
2023/07/15 02:01:26;;;;;;;6.78;3.95;;;19.40;73.00;;;;;;5073584;28;20101;-52
2023/07/15 02:03:53;;;;;;;6.53;4.30;;;19.40;73.60;;;;;;5066223;28;20024;-51
2023/07/15 02:06:20;;;;;;;5.60;3.92;;;19.30;73.40;;;;;;5075461;28;20012;-49
2023/07/15 02:08:45;;;;;;;5.88;3.78;;;19.30;73.70;;;;;;5066310;28;20032;-48
2023/07/15 02:11:12;;;;;;;11.23;4.65;;;19.30;73.60;;;;;;5069771;28;20464;-48
2023/07/15 02:13:42;;;;;;;5.88;4.20;;;19.20;73.40;;;;;;5055966;28;20056;-49
2023/07/15 02:16:09;;;;;;;8.32;4.07;;;19.20;73.50;;;;;;5056228;28;20021;-49
2023/07/15 02:18:35;;;;;;;8.15;5.03;;;19.20;73.60;;;;;;5055794;28;20029;-51
2023/07/15 02:21:01;;;;;;;8.57;3.78;;;19.20;74.00;;;;;;5037876;28;20126;-48
2023/07/15 02:23:29;;;;;;;7.03;3.92;;;19.20;73.70;;;;;;5055929;28;20712;-49
2023/07/15 02:25:56;;;;;;;6.68;4.22;;;19.20;73.60;;;;;;5055304;28;20033;-48
2023/07/15 02:28:26;;;;;;;9.02;4.53;;;19.30;73.40;;;;;;5055382;28;20037;-50
2023/07/15 02:30:53;;;;;;;;;;;19.30;73.00;;;;;;5055917;28;20025;-49
2023/07/15 02:33:21;;;;;;;5.03;3.47;;;19.40;72.50;;;;;;5055343;28;19916;-49
2023/07/15 02:35:50;;;;;;;7.05;3.55;;;19.40;72.40;;;;;;5055449;28;20064;-48
2023/07/15 02:38:17;;;;;;;7.03;3.90;;;19.40;71.90;;;;;;5055182;28;20033;-51
2023/07/15 02:40:46;;;;;;;10.85;4.15;;;19.50;72.00;;;;;;5055255;28;20072;-49
2023/07/15 02:43:13;;;;;;;9.60;4.43;;;19.60;71.60;;;;;;5055297;28;20029;-50
2023/07/15 02:45:40;;;;;;;6.43;3.70;;;19.60;71.50;;;;;;5055202;28;20028;-49
2023/07/15 02:48:09;;;;;;;7.75;3.97;;;19.60;71.30;;;;;;5055175;28;20036;-51
2023/07/15 02:50:38;;;;;;;6.45;3.53;;;19.60;71.20;;;;;;5054876;28;20468;-52
2023/07/15 02:53:07;;;;;;;5.18;3.85;;;19.70;71.10;;;;;;5074975;28;20083;-49
2023/07/15 02:55:34;;;;;;;7.65;3.80;;;19.70;71.10;;;;;;5075073;28;20330;-49
2023/07/15 02:58:03;;;;;;;6.10;3.88;;;19.70;70.70;;;;;;5074880;28;20028;-49
2023/07/15 03:00:31;;;;;;;6.13;4.35;;;19.80;70.60;;;;;;5074907;28;20139;-48
2023/07/15 03:02:59;;;;;;;9.02;3.85;;;19.70;70.70;;;;;;5037608;28;20033;-50
2023/07/15 03:05:26;;;;;;;7.95;4.15;;;19.80;70.50;;;;;;5054568;28;20032;-52
2023/07/15 03:07:53;;;;;;;7.05;3.72;;;19.80;70.10;;;;;;5054453;28;20102;-51
2023/07/15 03:10:20;;;;;;;7.88;3.85;;;19.80;70.10;;;;;;5055175;28;20025;-50
2023/07/15 03:12:49;;;;;;;6.07;3.83;;;19.80;70.10;;;;;;5054644;28;20450;-49
2023/07/15 03:15:16;;;;;;;7.72;3.92;;;19.80;69.90;;;;;;5054802;28;20036;-49
2023/07/15 03:17:44;;;;;;;6.50;4.18;;;19.80;69.60;;;;;;5054397;28;20049;-50
2023/07/15 03:20:19;;;;;;;8.18;3.30;;;19.80;69.60;;;;;;5055577;28;20485;-48
2023/07/15 03:22:47;;;;;;;6.18;3.42;;;19.80;69.30;;;;;;5061028;28;20741;-46
2023/07/15 03:25:14;;;;;;;5.78;3.30;;;19.80;69.30;;;;;;5054388;28;20033;-46
2023/07/15 03:27:41;;;;;;;6.38;4.78;;;19.80;69.10;;;;;;5063991;28;20029;-46
2023/07/15 03:30:09;;;;;;;6.82;3.67;;;19.80;69.20;;;;;;5073486;28;20103;-46
2023/07/15 03:32:40;;;;;;;6.10;3.45;;;19.70;69.30;;;;;;5071280;28;20033;-46
2023/07/15 03:35:10;;;;;;;6.35;3.97;;;19.70;69.40;;;;;;5073541;28;20024;-46
2023/07/15 03:37:41;;;;;;;6.30;3.35;;;19.60;69.60;;;;;;5061536;28;20027;-51
2023/07/15 03:40:12;;;;;;;6.75;4.13;;;19.70;69.60;;;;;;5072188;28;20052;-48
2023/07/15 03:42:40;;;;;;;7.05;3.63;;;19.60;69.50;;;;;;5070984;28;20029;-47
2023/07/15 03:45:08;;;;;;;8.65;3.78;;;19.60;69.60;;;;;;5073250;28;20040;-46
2023/07/15 03:47:35;;;;;;;5.00;3.08;;;19.60;69.70;;;;;;5070694;28;20028;-47
2023/07/15 03:50:09;;;;;;;7.32;3.55;;;19.60;69.40;;;;;;5063712;28;20025;-46
2023/07/15 03:52:35;;;;;;;4.72;3.08;;;19.60;69.50;;;;;;5066048;28;20029;-46
2023/07/15 03:55:05;;;;;;;6.97;4.00;;;19.60;69.30;;;;;;5053963;28;20107;-46
2023/07/15 03:57:33;;;;;;;7.18;3.42;;;19.60;69.30;;;;;;5053731;28;20017;-46
2023/07/15 03:59:59;;;;;;;7.65;3.55;;;19.60;69.50;;;;;;5064420;28;20430;-47
2023/07/15 04:02:28;;;;;;;7.18;3.75;;;19.60;69.30;;;;;;5069364;28;20094;-50
2023/07/15 04:04:55;;;;;;;9.73;3.60;;;19.50;69.50;;;;;;5073161;28;20024;-50
2023/07/15 04:07:22;;;;;;;5.80;3.90;;;19.50;69.90;;;;;;5073375;28;20517;-47
2023/07/15 04:09:51;;;;;;;5.32;3.42;;;19.50;70.00;;;;;;5070823;28;20039;-46
2023/07/15 04:12:17;;;;;;;6.75;3.40;;;19.40;69.90;;;;;;5073128;28;20020;-46
2023/07/15 04:14:44;;;;;;;7.30;3.60;;;19.40;70.30;;;;;;5064925;28;20130;-46
2023/07/15 04:17:11;;;;;;;5.50;2.97;;;19.40;70.50;;;;;;5053595;28;20039;-50
2023/07/15 04:19:38;;;;;;;4.53;3.08;;;19.30;70.80;;;;;;5053212;28;20064;-47
2023/07/15 04:22:04;;;;;;;6.13;3.38;;;19.20;70.70;;;;;;5035799;28;20035;-49
2023/07/15 04:24:33;;;;;;;6.80;3.83;;;19.20;71.00;;;;;;5053277;28;20037;-47
2023/07/15 04:26:59;;;;;;;6.10;3.83;;;19.20;70.90;;;;;;5053234;28;20044;-49
2023/07/15 04:29:25;;;;;;;6.45;3.35;;;19.20;71.00;;;;;;5053080;28;20287;-46
2023/07/15 04:31:52;;;;;;;8.60;4.07;;;19.10;70.90;;;;;;5053358;28;20025;-46
2023/07/15 04:34:19;;;;;;;5.22;3.10;;;19.10;71.00;;;;;;5053181;28;20119;-47
2023/07/15 04:36:46;;;;;;;5.32;3.10;;;19.10;71.30;;;;;;5052523;28;20029;-46
2023/07/15 04:39:15;;;;;;;6.85;3.25;;;19.10;71.40;;;;;;5051448;28;20044;-47
2023/07/15 04:41:42;;;;;;;5.22;3.75;;;19.20;71.80;;;;;;5052663;28;20029;-46
2023/07/15 04:44:09;;;;;;;5.25;3.20;;;19.10;71.30;;;;;;5051782;28;20076;-47
2023/07/15 04:46:36;;;;;;;6.15;3.45;;;19.20;71.30;;;;;;5052219;28;20029;-51
2023/07/15 04:49:04;;;;;;;10.60;3.78;;;19.20;71.30;;;;;;5052271;28;20041;-48
2023/07/15 04:51:29;;;;;;;4.97;3.15;;;19.20;71.20;;;;;;5052381;28;20091;-47
2023/07/15 04:53:56;;;;;;;5.05;3.33;;;19.30;71.30;;;;;;5051341;28;20071;-47
2023/07/15 04:56:23;;;;;;;4.95;3.53;;;19.20;71.10;;;;;;5064865;28;20451;-47
2023/07/15 04:58:50;;;;;;;5.35;3.33;;;19.30;71.50;;;;;;5062752;28;20025;-47
2023/07/15 05:01:18;;;;;;;5.07;3.28;;;19.30;71.40;;;;;;5067661;28;20017;-46
2023/07/15 05:03:45;;;;;;;6.03;3.17;;;19.40;71.10;;;;;;5072321;28;20020;-51
2023/07/15 05:06:12;;;;;;;5.43;3.90;;;19.40;71.50;;;;;;5072390;28;20400;-47
2023/07/15 05:08:39;;;;;;;6.47;3.35;;;19.40;71.40;;;;;;5072092;28;20024;-46
2023/07/15 05:11:08;;;;;;;5.57;3.45;;;19.40;71.40;;;;;;5068512;28;20090;-46
2023/07/15 05:13:35;;;;;;;6.57;3.22;;;19.40;71.20;;;;;;5059993;28;20035;-51
2023/07/15 05:16:03;;;;;;;5.85;3.03;;;19.40;71.60;;;;;;5074752;28;20017;-54
2023/07/15 05:18:31;;;;;;;5.07;3.13;;;19.40;71.60;;;;;;5076267;28;20101;-49
2023/07/15 05:20:57;;;;;;;5.38;3.90;;;19.40;71.70;;;;;;5080201;28;20385;-50
2023/07/15 05:23:24;;;;;;;7.90;4.30;;;19.40;71.70;;;;;;5056184;28;20106;-50
2023/07/15 05:25:51;;;;;;;8.77;3.67;;;19.50;71.90;;;;;;5056896;28;20029;-48
2023/07/15 05:28:18;;;;;;;5.35;3.03;;;19.50;71.90;;;;;;5055717;28;20026;-46
2023/07/15 05:30:46;;;;;;;7.15;3.22;;;19.50;71.70;;;;;;5056187;28;20120;-49
2023/07/15 05:33:13;;;;;;;7.72;2.92;;;19.60;71.20;;;;;;5056825;28;20048;-47
2023/07/15 05:35:42;;;;;;;5.50;2.50;;;19.70;70.80;;;;;;5054366;28;20047;-47
2023/07/15 05:38:09;;;;;;;13.55;3.92;;;19.80;70.20;;;;;;5071736;28;20056;-49
2023/07/15 05:40:40;;;;;;;3.92;2.30;;;19.90;70.20;;;;;;5092755;28;20027;-52
2023/07/15 05:43:08;;;;;;;6.78;2.50;;;19.90;69.90;;;;;;5057019;28;20025;-49
2023/07/15 05:45:34;;;;;;;5.97;2.97;;;20.10;69.20;;;;;;5076708;28;20043;-55
2023/07/15 05:48:01;;;;;;;7.38;2.65;;;20.20;69.40;;;;;;5088324;28;20024;-50
2023/07/15 05:50:32;;;;;;;3.92;2.83;;;20.30;68.20;;;;;;5087013;28;20028;-50
2023/07/15 05:53:01;;;;;;;6.18;2.40;;;20.40;68.40;;;;;;5095360;28;20016;-47
2023/07/15 05:55:30;;;;;;;4.90;2.83;;;20.40;68.60;;;;;;5078985;28;20008;-47
2023/07/15 05:57:55;;;;;;;4.85;2.95;;;20.60;67.60;;;;;;5071889;28;20043;-50
2023/07/15 06:00:22;;;;;;;3.85;2.60;;;20.80;67.40;;;;;;5076026;28;20107;-49
2023/07/15 06:02:49;;;;;;;4.82;2.80;;;20.90;67.20;;;;;;5075020;28;20315;-47
2023/07/15 06:05:16;;;;;;;6.93;2.42;;;20.90;67.40;;;;;;5075042;28;20025;-48
2023/07/15 06:07:43;;;;;;;4.72;2.88;;;21.00;67.00;;;;;;5069948;28;20411;-46
2023/07/15 06:10:10;;;;;;;6.13;3.13;;;21.10;67.80;;;;;;5055584;28;20025;-49
2023/07/15 06:12:36;;;;;;;4.18;2.25;;;21.30;66.50;;;;;;5056150;28;20029;-48
2023/07/15 06:15:05;;;;;;;4.63;2.75;;;21.40;67.50;;;;;;5055478;28;20027;-47
2023/07/15 06:17:32;;;;;;;7.73;2.30;;;21.70;66.30;;;;;;5077203;28;20103;-48
2023/07/15 06:20:04;;;;;;;5.75;2.45;;;21.90;65.30;;;;;;5074661;28;20076;-49
2023/07/15 06:22:29;;;;;;;6.65;2.33;;;22.00;65.80;;;;;;5072097;28;20118;-47
2023/07/15 06:24:56;;;;;;;4.88;2.35;;;22.20;66.20;;;;;;5074936;28;20103;-47
2023/07/15 06:27:23;;;;;;;5.70;2.60;;;22.30;64.90;;;;;;5056282;28;20052;-50
2023/07/15 06:29:50;;;;;;;5.65;2.85;;;22.40;64.60;;;;;;5074321;28;20035;-47
2023/07/15 06:32:17;;;;;;;6.40;2.55;;;22.40;64.10;;;;;;5074259;28;20572;-52
2023/07/15 06:34:42;;;;;;;4.38;2.72;;;22.40;64.50;;;;;;5074227;28;20466;-48
2023/07/15 06:37:09;;;;;;;6.63;2.92;;;22.40;64.40;;;;;;5074527;28;20048;-47
2023/07/15 06:39:36;;;;;;;5.72;2.33;;;22.50;64.50;;;;;;5074028;28;20103;-47
2023/07/15 06:42:04;;;;;;;15.65;4.05;;;22.50;64.30;;;;;;5070780;28;20553;-49
2023/07/15 06:44:31;;;;;;;5.80;2.95;;;22.60;64.00;;;;;;5071362;28;20058;-48
2023/07/15 06:46:58;;;;;;;6.55;2.90;;;22.70;63.20;;;;;;5065266;28;20047;-49
2023/07/15 06:49:25;;;;;;;6.20;3.20;;;22.70;63.20;;;;;;5074908;28;20032;-48
2023/07/15 06:51:55;;;;;;;6.25;2.78;;;22.70;63.50;;;;;;5073502;28;20070;-47
2023/07/15 06:54:23;;;;;;;6.47;3.00;;;22.70;64.60;;;;;;5071932;28;20029;-47
2023/07/15 06:56:50;;;;;;;6.13;2.60;;;22.70;64.40;;;;;;5070940;28;20108;-47
2023/07/15 06:59:17;;;;;;;7.20;2.83;;;22.90;65.10;;;;;;5073765;28;20024;-48
2023/07/15 07:01:43;;;;;;;6.35;2.78;;;22.90;64.20;;;;;;5066772;28;20028;-48
2023/07/15 07:04:10;;;;;;;4.65;2.60;;;22.90;63.50;;;;;;5072731;28;20052;-47
2023/07/15 07:06:37;;;;;;;6.07;2.50;;;22.80;64.20;;;;;;5074582;28;20457;-49
2023/07/15 07:09:04;;;;;;;8.30;2.92;;;22.90;64.50;;;;;;5071560;28;20040;-50
2023/07/15 07:11:29;;;;;;;5.10;2.88;;;22.90;64.60;;;;;;5053681;28;20065;-47
2023/07/15 07:13:56;;;;;;;6.35;2.78;;;22.90;64.40;;;;;;5054561;28;20436;-48
2023/07/15 07:16:23;;;;;;;7.28;2.90;;;23.00;65.70;;;;;;5053396;28;20036;-49
2023/07/15 07:18:49;;;;;;;9.23;2.75;;;23.10;66.00;;;;;;5036857;28;20446;-47
2023/07/15 07:21:16;;;;;;;5.40;2.78;;;23.20;64.30;;;;;;5053786;28;20043;-48
2023/07/15 07:23:41;;;;;;;6.47;3.00;;;23.30;64.30;;;;;;5067441;28;20091;-49
2023/07/15 07:26:09;;;;;;;6.25;2.72;;;23.30;63.20;;;;;;5074044;28;20032;-51
2023/07/15 07:28:43;;;;;;;4.85;2.45;;;23.40;62.40;;;;;;5073762;28;20027;-47
2023/07/15 07:31:12;;;;;;;10.75;3.28;;;23.50;63.20;;;;;;5069245;28;20025;-51
2023/07/15 07:33:40;;;;;;;5.30;3.00;;;23.90;64.50;;;;;;5064576;28;20116;-48
2023/07/15 07:36:07;;;;;;;3.97;2.40;;;24.20;63.80;;;;;;5053626;28;20033;-51
2023/07/15 07:38:34;;;;;;;6.43;3.20;;;24.40;61.70;;;;;;5053061;28;20020;-50
2023/07/15 07:41:12;;;;;;;5.00;2.35;;;24.90;61.90;;;;;;5053868;28;20048;-49
2023/07/15 07:43:39;;;;;;;7.07;2.65;;;25.40;59.80;;;;;;5059077;28;20038;-48
2023/07/15 07:46:10;;;;;;;4.53;2.53;;;25.50;58.70;;;;;;5057701;28;20362;-48
2023/07/15 07:48:37;;;;;;;7.15;2.42;;;25.70;58.10;;;;;;5064960;28;20166;-50
2023/07/15 07:51:04;;;;;;;7.93;3.08;;;25.90;58.60;;;;;;5073453;28;20579;-51
2023/07/15 07:53:31;;;;;;;7.40;2.92;;;26.00;56.20;;;;;;5071731;28;20140;-48
2023/07/15 07:55:58;;;;;;;5.55;2.30;;;26.40;55.80;;;;;;5073677;28;20020;-48
2023/07/15 07:58:25;;;;;;;8.27;2.92;;;26.60;56.30;;;;;;5073461;28;20038;-50
2023/07/15 08:00:52;;;;;;;7.35;2.78;;;26.80;55.80;;;;;;5069762;28;20029;-49
2023/07/15 08:03:18;;;;;;;4.28;2.10;;;27.20;55.00;;;;;;5071099;28;20457;-51
2023/07/15 08:05:46;;;;;;;8.00;2.78;;;27.30;54.90;;;;;;5072053;28;20036;-48
2023/07/15 08:08:14;;;;;;;6.03;2.33;;;27.50;54.50;;;;;;5071686;28;20031;-49
2023/07/15 08:10:41;;;;;;;4.28;2.22;;;27.80;54.80;;;;;;5072620;28;20044;-48
2023/07/15 08:13:08;;;;;;;3.30;2.35;;;28.10;53.70;;;;;;5071463;28;20016;-47
2023/07/15 08:15:36;;;;;;;4.43;2.00;;;28.30;53.60;;;;;;5063338;28;20020;-47
2023/07/15 08:18:06;;;;;;;5.47;2.80;;;28.30;53.10;;;;;;5072306;28;20035;-47
2023/07/15 08:20:41;;;;;;;5.45;2.72;;;28.40;52.60;;;;;;5036429;28;20049;-48
2023/07/15 08:23:09;;;;;;;4.85;2.15;;;28.50;53.50;;;;;;5032488;28;20111;-48
2023/07/15 08:25:38;;;;;;;4.15;2.05;;;28.60;52.40;;;;;;5037377;28;20033;-49
2023/07/15 08:28:06;;;;;;;5.75;2.33;;;28.50;52.90;;;;;;5051817;28;20029;-52
2023/07/15 08:30:36;;;;;;;4.37;1.93;;;28.40;52.10;;;;;;5050529;28;20037;-50
2023/07/15 08:33:04;;;;;;;4.63;2.17;;;28.60;54.10;;;;;;5051600;28;20095;-52
2023/07/15 08:35:32;;;;;;;5.27;2.40;;;28.70;52.90;;;;;;5050956;28;20062;-48
2023/07/15 08:37:59;;;;;;;7.38;2.50;;;28.90;53.00;;;;;;5038608;28;20026;-48
2023/07/15 08:40:26;;;;;;;5.18;2.05;;;28.90;54.10;;;;;;5032937;28;20124;-51
2023/07/15 08:42:56;;;;;;;5.85;3.00;;;28.80;53.30;;;;;;5031661;28;20033;-49
2023/07/15 08:45:25;;;;;;;3.50;1.98;;;28.90;52.40;;;;;;5015048;28;20048;-50
2023/07/15 08:47:53;;;;;;;5.68;2.28;;;29.00;53.80;;;;;;5031486;28;20072;-50
2023/07/15 08:50:20;;;;;;;3.83;2.08;;;28.90;52.80;;;;;;5032258;28;20033;-55
2023/07/15 08:52:47;;;;;;;10.93;2.80;;;29.30;53.70;;;;;;5031009;28;20036;-49
2023/07/15 08:55:13;;;;;;;4.97;2.28;;;29.20;53.20;;;;;;5036550;28;20059;-47
2023/07/15 08:57:39;;;;;;;4.07;2.15;;;29.30;53.70;;;;;;5052190;28;20052;-50
2023/07/15 09:00:10;;;;;;;6.63;3.13;;;29.40;54.50;;;;;;5052318;28;20421;-48
2023/07/15 09:02:37;;;;;;;8.38;3.65;;;29.50;53.70;;;;;;5038816;28;20033;-48
2023/07/15 09:05:07;;;;;;;5.43;2.83;;;29.50;54.40;;;;;;5032640;28;20021;-47
2023/07/15 09:07:44;;;;;;;3.13;2.17;;;29.30;53.20;;;;;;5032396;28;20494;-49
2023/07/15 09:10:12;;;;;;;3.45;1.77;;;29.50;51.90;;;;;;5032555;28;20041;-47
2023/07/15 09:12:47;;;;;;;3.65;2.00;;;29.60;53.30;;;;;;5032548;28;20029;-47
2023/07/15 09:15:14;;;;;;;3.30;1.83;;;29.80;53.70;;;;;;5019205;28;20033;-52
2023/07/15 09:17:49;;;;;;;3.33;1.60;;;29.80;52.50;;;;;;5015216;28;20108;-47
2023/07/15 09:20:20;;;;;;;3.85;1.95;;;29.90;53.40;;;;;;5049733;28;20443;-47
2023/07/15 09:22:58;;;;;;;5.30;2.25;;;29.90;53.20;;;;;;5072197;28;20040;-49
2023/07/15 09:25:25;;;;;;;6.13;2.45;;;29.70;52.70;;;;;;5063336;28;20077;-50
2023/07/15 09:27:53;;;;;;;4.47;1.80;;;29.80;52.90;;;;;;5071446;28;20060;-49
2023/07/15 09:30:24;;;;;;;4.82;1.50;;;29.70;53.00;;;;;;5066730;28;20140;-49
2023/07/15 09:32:49;;;;;;;5.80;1.70;;;29.70;53.50;;;;;;5071040;28;20040;-48
2023/07/15 09:35:16;;;;;;;3.47;1.88;;;29.80;52.50;;;;;;5067364;28;20029;-47
2023/07/15 09:37:51;;;;;;;5.88;2.30;;;29.60;52.80;;;;;;5071642;28;20111;-49
2023/07/15 09:40:18;;;;;;;4.03;1.80;;;29.70;50.90;;;;;;5071449;28;20024;-54
2023/07/15 09:42:54;;;;;;;3.70;2.28;;;29.70;52.80;;;;;;5071715;28;20135;-50
2023/07/15 09:45:40;;;;;;;4.65;1.83;;;29.80;52.30;;;;;;5056371;28;20044;-52
2023/07/15 09:48:16;;;;;;;3.80;1.98;;;29.80;53.50;;;;;;5052505;28;20386;-50
2023/07/15 09:50:43;;;;;;;4.47;1.65;;;29.60;52.70;;;;;;5051420;28;20465;-51
2023/07/15 09:53:13;;;;;;;4.30;1.73;;;29.30;54.50;;;;;;5034100;28;20033;-52
2023/07/15 09:55:40;;;;;;;3.20;2.03;;;29.50;54.90;;;;;;5050995;28;20335;-50
2023/07/15 09:58:24;;;;;;;9.40;2.20;;;29.60;53.00;;;;;;5051318;28;20087;-50
2023/07/15 10:01:02;;;;;;;3.67;1.98;;;29.80;54.10;;;;;;5053012;28;20029;-53
2023/07/15 10:03:39;;;;;;;5.63;1.83;;;29.90;53.10;;;;;;5055801;28;20056;-49
2023/07/15 10:06:07;;;;;;;3.50;1.60;;;29.80;53.30;;;;;;5055794;28;20024;-50
2023/07/15 10:08:35;;;;;;;3.38;1.60;;;29.70;52.90;;;;;;5055805;28;20163;-50
2023/07/15 10:11:01;;;;;;;4.45;1.67;;;29.40;53.80;;;;;;5055527;28;20115;-55
2023/07/15 10:13:28;;;;;;;3.05;1.98;;;29.30;54.70;;;;;;5038380;28;20086;-48
2023/07/15 10:15:55;;;;;;;4.82;2.25;;;29.20;55.50;;;;;;5055615;28;20060;-54
2023/07/15 10:18:24;;;;;;;3.88;1.67;;;29.20;55.40;;;;;;5055629;28;20362;-50
2023/07/15 10:21:02;;;;;;;3.15;1.67;;;28.80;56.40;;;;;;5055493;28;20140;-48
2023/07/15 10:23:33;;;;;;;7.57;2.40;;;28.70;56.60;;;;;;5055450;28;20045;-49
2023/07/15 10:26:05;;;;;;;3.42;1.90;;;28.50;56.50;;;;;;5055945;28;20029;-54
2023/07/15 10:28:51;;;;;;;3.47;1.63;;;28.50;55.90;;;;;;5053324;28;20029;-48
2023/07/15 10:31:23;;;;;;;3.85;1.60;;;28.70;55.80;;;;;;5054725;28;20044;-50
2023/07/15 10:33:58;;;;;;;3.22;1.75;;;29.30;59.50;;;;;;5052374;28;20025;-53
2023/07/15 10:36:44;;;;;;;3.53;1.65;;;29.70;56.10;;;;;;5055193;28;20025;-51
2023/07/15 10:39:20;;;;;;;5.53;1.98;;;30.10;57.10;;;;;;5055583;28;20036;-51
2023/07/15 10:42:08;;;;;;;4.93;1.90;;;30.10;54.30;;;;;;5055144;28;20537;-50
2023/07/15 10:44:47;;;;;;;6.97;1.90;;;30.20;53.70;;;;;;5055246;28;20040;-52
2023/07/15 10:47:15;;;;;;;3.05;1.88;;;29.50;53.40;;;;;;5055471;28;20111;-53
2023/07/15 10:49:43;;;;;;;4.35;1.58;;;29.90;54.20;;;;;;5055015;28;20033;-48
2023/07/15 10:52:09;;;;;;;3.58;1.48;;;29.60;52.10;;;;;;5054998;28;20053;-49
2023/07/15 10:54:38;;;;;;;3.88;1.90;;;29.30;52.20;;;;;;5055030;28;20462;-51
2023/07/15 10:57:15;;;;;;;3.88;1.52;;;29.10;54.40;;;;;;5055162;28;20097;-49
2023/07/15 10:59:46;;;;;;;3.03;1.52;;;29.30;54.40;;;;;;5055142;28;20119;-49
2023/07/15 11:02:18;;;;;;;3.67;1.92;;;29.80;55.40;;;;;;5054926;28;20031;-49
2023/07/15 11:04:46;;;;;;;4.18;1.60;;;30.10;55.00;;;;;;5054745;28;20052;-48
2023/07/15 11:07:14;;;;;;;2.75;1.55;;;30.00;52.90;;;;;;5054607;28;20029;-49
2023/07/15 11:09:41;;;;;;;3.47;1.80;;;29.90;53.10;;;;;;5054657;28;20036;-50
2023/07/15 11:12:09;;;;;;;3.72;1.63;;;29.70;53.70;;;;;;5054319;28;20361;-55
2023/07/15 11:14:44;;;;;;;4.13;1.30;;;29.80;53.20;;;;;;5054702;28;20021;-52
2023/07/15 11:17:14;;;;;;;4.78;1.73;;;29.90;54.70;;;;;;5054786;28;20092;-51
2023/07/15 11:19:41;;;;;;;3.85;1.52;;;30.10;52.10;;;;;;5054338;28;20469;-54
2023/07/15 11:22:09;;;;;;;4.20;1.70;;;29.90;53.00;;;;;;5054693;28;20082;-51
2023/07/15 11:24:36;;;;;;;2.47;1.57;;;29.90;51.00;;;;;;5054371;28;20029;-51
2023/07/15 11:27:05;;;;;;;4.70;1.40;;;29.90;53.10;;;;;;5054405;28;20087;-49
2023/07/15 11:29:31;;;;;;;4.88;1.75;;;29.80;53.70;;;;;;5054261;28;20462;-50
2023/07/15 11:31:59;;;;;;;4.05;1.80;;;29.90;54.50;;;;;;5054689;28;20061;-51
2023/07/15 11:34:27;;;;;;;5.28;1.58;;;29.70;52.20;;;;;;5054095;28;20362;-52
2023/07/15 11:36:55;;;;;;;4.03;1.25;;;29.60;54.10;;;;;;5054288;28;20495;-55
2023/07/15 11:39:22;;;;;;;3.30;1.67;;;29.40;53.70;;;;;;5054203;28;20063;-52
2023/07/15 11:41:52;;;;;;;2.80;1.52;;;29.20;53.70;;;;;;5053908;28;20017;-50
2023/07/15 11:44:23;;;;;;;2.90;1.48;;;28.70;55.40;;;;;;5054123;28;20017;-54
2023/07/15 11:46:49;;;;;;;6.28;1.70;;;28.40;56.70;;;;;;5052969;28;20033;-52
2023/07/15 11:49:22;;;;;;;4.53;2.38;;;28.30;56.90;;;;;;5054650;28;20044;-54
2023/07/15 11:51:56;;;;;;;3.70;1.90;;;27.90;58.40;;;;;;5073124;28;20035;-51
2023/07/15 11:54:24;;;;;;;6.07;2.25;;;27.90;58.30;;;;;;5054932;28;20127;-53
2023/07/15 11:56:52;;;;;;;5.28;1.83;;;27.80;57.70;;;;;;5056368;28;20048;-54
2023/07/15 11:59:27;;;;;;;3.47;1.73;;;27.50;57.10;;;;;;5069100;28;20020;-49
2023/07/15 12:02:03;;;;;;;5.43;2.00;;;27.30;57.50;;;;;;5036634;28;20028;-51
2023/07/15 12:04:31;;;;;;;4.47;2.15;;;27.20;58.00;;;;;;5060907;28;20021;-56
2023/07/15 12:07:02;;;;;;;5.60;2.15;;;27.00;58.30;;;;;;5072976;28;20059;-53
2023/07/15 12:09:28;;;;;;;5.93;1.98;;;26.90;58.60;;;;;;5068849;28;20127;-50
2023/07/15 12:11:56;;;;;;;4.60;1.95;;;27.00;59.60;;;;;;5058858;28;20068;-51
2023/07/15 12:14:24;;;;;;;3.80;1.58;;;27.40;60.00;;;;;;5067458;28;20031;-53
2023/07/15 12:16:55;;;;;;;4.80;1.73;;;27.70;58.40;;;;;;5071000;28;20039;-54
2023/07/15 12:19:24;;;;;;;4.28;1.42;;;27.90;57.60;;;;;;5062009;28;20761;-49
2023/07/15 12:21:51;;;;;;;3.27;1.67;;;28.00;56.20;;;;;;5061778;28;20036;-52
2023/07/15 12:24:19;;;;;;;4.88;1.55;;;28.10;54.50;;;;;;5071684;28;20031;-51
2023/07/15 12:26:45;;;;;;;7.32;2.00;;;28.20;56.50;;;;;;5070128;28;20354;-51
2023/07/15 12:29:10;;;;;;;5.03;2.03;;;28.20;55.20;;;;;;5059573;28;20031;-54
2023/07/15 12:31:37;;;;;;;4.97;2.10;;;27.90;55.50;;;;;;5072112;28;20016;-53
2023/07/15 12:34:04;;;;;;;3.65;1.65;;;27.70;55.70;;;;;;5069478;28;20081;-50
2023/07/15 12:36:33;;;;;;;3.53;1.58;;;27.50;55.70;;;;;;5072123;28;20024;-55
2023/07/15 12:39:00;;;;;;;4.05;1.73;;;27.40;55.90;;;;;;5071816;28;20017;-50
2023/07/15 12:41:27;;;;;;;8.02;2.20;;;27.20;56.80;;;;;;5072360;28;20035;-47
2023/07/15 12:43:54;;;;;;;3.80;1.75;;;27.00;57.30;;;;;;5058111;28;20055;-53
2023/07/15 12:46:19;;;;;;;7.25;2.63;;;26.70;57.90;;;;;;5072476;28;20040;-48
2023/07/15 12:48:50;;;;;;;4.78;2.63;;;26.40;59.00;;;;;;5058316;28;20021;-52
2023/07/15 12:51:20;;;;;;;5.43;1.77;;;26.20;58.90;;;;;;5072028;28;20094;-49
2023/07/15 12:53:47;;;;;;;4.60;2.50;;;25.90;61.00;;;;;;5060891;28;20454;-50
2023/07/15 12:56:14;;;;;;;3.35;1.90;;;25.90;61.70;;;;;;5054667;28;20028;-50